Time;durP1;ratioP1;P1;durP2;ratioP2;P2;SDS_P1;SDS_P2;PMS_P1;PMS_P2;Temp;Humidity;BMP_temperature;BMP_pressure;BME280_temperature;BME280_humidity;BME280_pressure;Samples;Min_cycle;Max_cycle;Signal;HPM_P1;HPM_P2
2021/04/05 00:01:26;;;;;;;32.53;21.45;;;;;;;;;;5073152;28;20356;-74
2021/04/05 00:03:54;;;;;;;27.80;21.45;;;;;;;;;;5073910;28;20017;-74
2021/04/05 00:06:21;;;;;;;35.60;21.55;;;;;;;;;;5076702;28;20028;-74
2021/04/05 00:08:49;;;;;;;29.38;21.13;;;;;;;;;;5076643;28;20452;-74
2021/04/05 00:11:15;;;;;;;37.78;21.63;;;;;;;;;;5076623;28;20016;-74
2021/04/05 00:13:41;;;;;;;33.92;21.25;;;;;;;;;;5076886;28;20175;-74
2021/04/05 00:16:06;;;;;;;34.30;21.13;;;;;;;;;;5076549;28;20024;-74
2021/04/05 00:18:32;;;;;;;31.02;21.10;;;;;;;;;;5076536;28;20023;-74
2021/04/05 00:21:13;;;;;;;33.70;22.17;;;;;;;;;;5076388;28;20341;-74
2021/04/05 00:23:38;;;;;;;33.65;22.20;;;;;;;;;;5076416;28;20020;-74
2021/04/05 00:26:04;;;;;;;35.65;21.00;;;;;;;;;;5076683;28;20433;-74
2021/04/05 00:28:29;;;;;;;31.42;21.58;;;;;;;;;;5076354;28;20092;-74
2021/04/05 00:30:54;;;;;;;38.10;21.52;;;;;;;;;;5076262;28;20356;-74
2021/04/05 00:33:20;;;;;;;34.85;20.98;;;;;;;;;;5076329;28;20499;-74
2021/04/05 00:35:46;;;;;;;31.45;21.80;;;;;;;;;;5075299;28;20487;-74
2021/04/05 00:38:13;;;;;;;33.53;20.85;;;;;;;;;;5076493;28;20326;-74
2021/04/05 00:40:41;;;;;;;30.90;20.23;;;;;;;;;;5076032;28;20025;-74
2021/04/05 00:43:08;;;;;;;36.35;20.75;;;;;;;;;;5075879;28;20426;-74
2021/04/05 00:45:36;;;;;;;29.75;21.30;;;;;;;;;;5076001;28;20021;-74
2021/04/05 00:48:02;;;;;;;33.83;22.35;;;;;;;;;;5076170;28;20013;-74
2021/04/05 00:50:27;;;;;;;36.25;21.95;;;;;;;;;;5075961;28;20035;-74
2021/04/05 00:52:53;;;;;;;33.45;20.65;;;;;;;;;;5075894;28;20033;-74
2021/04/05 00:55:19;;;;;;;33.88;21.70;;;;;;;;;;5075853;28;20071;-74
2021/04/05 00:57:44;;;;;;;34.97;20.92;;;;;;;;;;5075713;28;20028;-74
2021/04/05 01:00:14;;;;;;;35.42;20.45;;;;;;;;;;5075610;28;20115;-74
2021/04/05 01:02:39;;;;;;;32.60;21.77;;;;;;;;;;5075680;28;20023;-74
2021/04/05 01:05:05;;;;;;;31.92;21.70;;;;;;;;;;5075552;28;20509;-74
2021/04/05 01:07:30;;;;;;;36.45;21.58;;;;;;;;;;5075554;28;20024;-74
2021/04/05 01:09:55;;;;;;;31.85;21.23;;;;;;;;;;5075881;28;20028;-74
2021/04/05 01:12:23;;;;;;;30.15;21.13;;;;;;;;;;5074621;28;20514;-73
2021/04/05 01:14:48;;;;;;;31.75;20.98;;;;;;;;;;5074322;28;20112;-74
2021/04/05 01:17:14;;;;;;;32.22;20.08;;;;;;;;;;5075387;28;20569;-74
2021/04/05 01:19:41;;;;;;;40.17;21.50;;;;;;;;;;5075369;28;20028;-74
2021/04/05 01:22:07;;;;;;;33.60;22.08;;;;;;;;;;5075265;28;20115;-74
2021/04/05 01:24:32;;;;;;;32.03;20.98;;;;;;;;;;5075221;28;20051;-74
2021/04/05 01:26:59;;;;;;;37.17;21.73;;;;;;;;;;5075806;28;20020;-74
2021/04/05 01:29:25;;;;;;;34.08;21.63;;;;;;;;;;5075092;28;20050;-74
2021/04/05 01:31:52;;;;;;;35.45;22.05;;;;;;;;;;5075006;28;20024;-74
2021/04/05 01:34:20;;;;;;;28.13;21.15;;;;;;;;;;5075066;28;20338;-74
2021/04/05 01:36:47;;;;;;;32.22;21.35;;;;;;;;;;5075015;28;20020;-74
2021/04/05 01:39:12;;;;;;;33.25;20.92;;;;;;;;;;5074898;28;20111;-74
2021/04/05 01:41:37;;;;;;;33.63;19.90;;;;;;;;;;5074658;28;20135;-74
2021/04/05 01:44:03;;;;;;;36.88;22.00;;;;;;;;;;5073884;28;20052;-74
2021/04/05 01:46:29;;;;;;;31.67;19.38;;;;;;;;;;5074983;28;20021;-74
2021/04/05 01:48:57;;;;;;;31.38;21.42;;;;;;;;;;5073787;28;20025;-74
2021/04/05 01:51:23;;;;;;;34.70;21.77;;;;;;;;;;5074675;28;20020;-74
2021/04/05 01:53:49;;;;;;;33.00;21.55;;;;;;;;;;5074689;28;20059;-74
2021/04/05 01:56:17;;;;;;;32.00;21.33;;;;;;;;;;5074512;28;20032;-74
2021/04/05 01:58:47;;;;;;;32.88;22.35;;;;;;;;;;5074546;28;20441;-74
2021/04/05 02:01:15;;;;;;;33.97;21.15;;;;;;;;;;5074531;28;20020;-74
2021/04/05 02:03:41;;;;;;;33.97;22.38;;;;;;;;;;5074478;28;20027;-74
2021/04/05 02:06:12;;;;;;;31.17;20.58;;;;;;;;;;5074497;28;20012;-74
2021/04/05 02:08:40;;;;;;;36.50;22.20;;;;;;;;;;5074414;28;20028;-74
2021/04/05 02:11:11;;;;;;;36.72;22.98;;;;;;;;;;5074339;28;20024;-74
2021/04/05 02:13:36;;;;;;;31.80;21.80;;;;;;;;;;5074388;28;20021;-74
2021/04/05 02:16:04;;;;;;;35.58;22.25;;;;;;;;;;5074344;28;20323;-74
2021/04/05 02:18:30;;;;;;;33.25;21.92;;;;;;;;;;5074339;28;20563;-74
2021/04/05 02:20:56;;;;;;;33.80;22.15;;;;;;;;;;5074129;28;20081;-74
2021/04/05 02:23:23;;;;;;;33.20;23.23;;;;;;;;;;5073178;28;20112;-74
2021/04/05 02:26:08;;;;;;;34.88;22.52;;;;;;;;;;5074190;28;20119;-73
2021/04/05 02:28:35;;;;;;;32.97;22.27;;;;;;;;;;5074458;28;20360;-73
2021/04/05 02:31:00;;;;;;;33.70;22.52;;;;;;;;;;5074197;28;20020;-73
2021/04/05 02:33:25;;;;;;;30.92;22.48;;;;;;;;;;5074108;28;20016;-74
2021/04/05 02:35:51;;;;;;;39.67;22.27;;;;;;;;;;5073712;28;20028;-74
2021/04/05 02:38:17;;;;;;;37.88;22.38;;;;;;;;;;5073440;28;20020;-74
2021/04/05 02:40:45;;;;;;;38.13;23.42;;;;;;;;;;5071684;28;20029;-74
2021/04/05 02:43:12;;;;;;;40.42;24.42;;;;;;;;;;5071603;28;20037;-74
2021/04/05 02:45:38;;;;;;;37.75;24.65;;;;;;;;;;5072766;28;20026;-74
2021/04/05 02:48:04;;;;;;;37.72;25.00;;;;;;;;;;5073703;28;20100;-74
2021/04/05 02:50:31;;;;;;;30.73;22.77;;;;;;;;;;5073294;28;20165;-74
2021/04/05 02:52:58;;;;;;;39.22;23.73;;;;;;;;;;5073380;28;20020;-75
2021/04/05 02:55:26;;;;;;;40.45;24.58;;;;;;;;;;5073674;28;20017;-80
2021/04/05 02:57:52;;;;;;;41.58;24.65;;;;;;;;;;5073286;28;20020;-81
2021/04/05 03:00:18;;;;;;;37.25;25.25;;;;;;;;;;5072935;28;20356;-81
2021/04/05 03:02:46;;;;;;;38.78;24.02;;;;;;;;;;5073053;28;20086;-81
2021/04/05 03:05:15;;;;;;;36.50;24.98;;;;;;;;;;5077653;28;20025;-81
2021/04/05 03:07:40;;;;;;;35.35;24.67;;;;;;;;;;5077464;28;20025;-80
2021/04/05 03:10:07;;;;;;;35.78;23.23;;;;;;;;;;5086820;28;20074;-81
2021/04/05 03:12:36;;;;;;;40.88;23.90;;;;;;;;;;5084171;28;20024;-82
2021/04/05 03:15:05;;;;;;;41.90;24.25;;;;;;;;;;5079021;28;20404;-82
2021/04/05 03:17:32;;;;;;;35.00;22.27;;;;;;;;;;5090174;28;20102;-81
2021/04/05 03:19:58;;;;;;;35.60;22.80;;;;;;;;;;5079209;28;20020;-79
2021/04/05 03:22:24;;;;;;;38.13;24.48;;;;;;;;;;5083342;28;20468;-79
2021/04/05 03:24:49;;;;;;;37.38;23.10;;;;;;;;;;5073077;28;20017;-79
2021/04/05 03:27:14;;;;;;;31.35;21.77;;;;;;;;;;5075535;28;20024;-79
2021/04/05 03:29:40;;;;;;;36.75;23.27;;;;;;;;;;5072915;28;20024;-79
2021/04/05 03:32:07;;;;;;;32.38;22.98;;;;;;;;;;5071220;28;20035;-80
2021/04/05 03:34:37;;;;;;;34.30;22.73;;;;;;;;;;5073162;28;20051;-81
2021/04/05 03:37:06;;;;;;;34.75;23.33;;;;;;;;;;5073401;28;20012;-82
2021/04/05 03:39:32;;;;;;;32.83;22.25;;;;;;;;;;5075295;28;20027;-82
2021/04/05 03:41:59;;;;;;;38.05;23.70;;;;;;;;;;5076984;28;20365;-82
2021/04/05 03:44:36;;;;;;;35.42;22.58;;;;;;;;;;5077156;28;20013;-81
2021/04/05 03:47:30;;;;;;;35.20;23.13;;;;;;;;;;5077391;28;20024;-80
2021/04/05 03:50:14;;;;;;;37.47;22.70;;;;;;;;;;5039960;28;20045;-80
2021/04/05 03:52:47;;;;;;;34.10;22.55;;;;;;;;;;5076046;28;20028;-80
2021/04/05 03:55:15;;;;;;;35.58;22.90;;;;;;;;;;5075995;28;20012;-80
2021/04/05 03:57:44;;;;;;;37.78;22.77;;;;;;;;;;5077005;28;20035;-80
2021/04/05 04:00:10;;;;;;;33.15;22.15;;;;;;;;;;5076848;28;20046;-80
2021/04/05 04:02:40;;;;;;;32.72;22.92;;;;;;;;;;5075948;28;20089;-80
2021/04/05 04:05:13;;;;;;;34.45;21.85;;;;;;;;;;5076797;28;20448;-79
2021/04/05 04:07:45;;;;;;;31.70;23.17;;;;;;;;;;5076696;28;20036;-79
2021/04/05 04:10:12;;;;;;;34.85;23.35;;;;;;;;;;5076757;28;20020;-79
2021/04/05 04:12:42;;;;;;;32.10;22.83;;;;;;;;;;5076736;28;20338;-79
2021/04/05 04:15:07;;;;;;;34.70;22.50;;;;;;;;;;5076707;28;20047;-79
2021/04/05 04:17:33;;;;;;;36.75;22.30;;;;;;;;;;5076615;28;20507;-80
2021/04/05 04:19:59;;;;;;;32.97;22.27;;;;;;;;;;5076441;28;20025;-79
2021/04/05 04:22:25;;;;;;;31.63;21.77;;;;;;;;;;5076504;28;20091;-80
2021/04/05 04:24:50;;;;;;;32.13;21.92;;;;;;;;;;5076487;28;20031;-81
2021/04/05 04:27:15;;;;;;;39.45;23.42;;;;;;;;;;5077038;28;20035;-81
2021/04/05 04:29:41;;;;;;;37.47;22.70;;;;;;;;;;5075863;28;20020;-79
2021/04/05 04:32:06;;;;;;;43.70;26.75;;;;;;;;;;5075779;28;20109;-80
2021/04/05 04:34:31;;;;;;;45.28;28.35;;;;;;;;;;5075781;28;20157;-79
2021/04/05 04:37:01;;;;;;;42.63;28.58;;;;;;;;;;5075953;28;20094;-79
2021/04/05 04:39:26;;;;;;;39.78;26.50;;;;;;;;;;5075692;28;20048;-78
2021/04/05 04:41:51;;;;;;;34.42;21.45;;;;;;;;;;5074458;28;20161;-79
2021/04/05 04:44:17;;;;;;;34.08;21.67;;;;;;;;;;5075622;28;20008;-78
2021/04/05 04:46:42;;;;;;;32.55;22.67;;;;;;;;;;5075518;28;20012;-77
2021/04/05 04:49:12;;;;;;;31.05;22.40;;;;;;;;;;5075338;28;20020;-78
2021/04/05 04:51:38;;;;;;;28.83;21.88;;;;;;;;;;5075399;28;20024;-79
2021/04/05 04:54:04;;;;;;;34.20;21.35;;;;;;;;;;5075467;28;20094;-78
2021/04/05 04:56:30;;;;;;;29.33;20.70;;;;;;;;;;5077100;28;20016;-79
2021/04/05 04:58:59;;;;;;;35.92;21.65;;;;;;;;;;5074214;28;20031;-80
2021/04/05 05:01:28;;;;;;;29.15;19.70;;;;;;;;;;5071997;28;20106;-78
2021/04/05 05:03:57;;;;;;;33.08;20.83;;;;;;;;;;5078779;28;20023;-80
2021/04/05 05:06:24;;;;;;;32.08;21.73;;;;;;;;;;5089651;28;20020;-80
2021/04/05 05:08:50;;;;;;;34.63;22.40;;;;;;;;;;5078704;28;20020;-80
2021/04/05 05:11:15;;;;;;;33.90;20.65;;;;;;;;;;5090082;28;20046;-79
2021/04/05 05:13:41;;;;;;;34.10;19.88;;;;;;;;;;5079097;28;20028;-80
2021/04/05 05:16:07;;;;;;;35.05;19.75;;;;;;;;;;5086912;28;20035;-73
2021/04/05 05:18:34;;;;;;;30.85;18.20;;;;;;;;;;5079029;28;20079;-76
2021/04/05 05:21:07;;;;;;;29.40;17.80;;;;;;;;;;5089193;28;20035;-78
2021/04/05 05:23:34;;;;;;;32.80;17.83;;;;;;;;;;5095225;28;20016;-78
2021/04/05 05:26:02;;;;;;;33.30;18.13;;;;;;;;;;5095206;28;20425;-77
2021/04/05 05:28:28;;;;;;;29.90;17.83;;;;;;;;;;5096905;28;20039;-77
2021/04/05 05:30:55;;;;;;;27.67;17.23;;;;;;;;;;5094816;28;20019;-77
2021/04/05 05:33:23;;;;;;;31.52;18.52;;;;;;;;;;5090359;28;20024;-74
2021/04/05 05:35:49;;;;;;;35.40;18.98;;;;;;;;;;5076088;28;20034;-76
2021/04/05 05:38:17;;;;;;;30.77;18.95;;;;;;;;;;5088666;28;20440;-79
2021/04/05 05:40:45;;;;;;;39.30;19.38;;;;;;;;;;5077048;28;20394;-78
2021/04/05 05:43:29;;;;;;;30.95;18.88;;;;;;;;;;5089228;28;20037;-78
2021/04/05 05:46:04;;;;;;;31.08;18.15;;;;;;;;;;5085702;28;20027;-80
2021/04/05 05:48:29;;;;;;;34.65;19.50;;;;;;;;;;5078437;28;20372;-77
2021/04/05 05:51:15;;;;;;;41.95;19.90;;;;;;;;;;5094185;28;20111;-79
2021/04/05 05:53:57;;;;;;;31.45;18.35;;;;;;;;;;5078312;28;20024;-76
2021/04/05 05:56:28;;;;;;;36.90;19.73;;;;;;;;;;5087143;28;20031;-76
2021/04/05 05:59:10;;;;;;;45.75;20.38;;;;;;;;;;5077293;28;20028;-75
2021/04/05 06:01:38;;;;;;;40.22;20.35;;;;;;;;;;5087075;28;20017;-77
2021/04/05 06:04:12;;;;;;;33.22;19.58;;;;;;;;;;5083102;28;20050;-79
2021/04/05 06:06:37;;;;;;;30.23;20.13;;;;;;;;;;5080341;28;20024;-78
2021/04/05 06:09:19;;;;;;;35.13;21.77;;;;;;;;;;5078430;28;20016;-77
2021/04/05 06:11:59;;;;;;;37.58;21.63;;;;;;;;;;5073893;28;20028;-75
2021/04/05 06:14:43;;;;;;;37.38;21.33;;;;;;;;;;5073738;28;20364;-76
2021/04/05 06:17:35;;;;;;;35.20;20.50;;;;;;;;;;5073747;28;20115;-74
2021/04/05 06:20:12;;;;;;;36.45;22.40;;;;;;;;;;5050245;28;20094;-76
2021/04/05 06:22:37;;;;;;;33.28;21.42;;;;;;;;;;5069815;28;20098;-77
2021/04/05 06:25:05;;;;;;;32.75;20.60;;;;;;;;;;5074683;28;20391;-77
2021/04/05 06:27:42;;;;;;;32.08;20.77;;;;;;;;;;5073081;28;20016;-77
2021/04/05 06:30:15;;;;;;;40.95;21.52;;;;;;;;;;5071968;28;20025;-75
2021/04/05 06:32:59;;;;;;;40.95;21.98;;;;;;;;;;5084087;28;20020;-77
2021/04/05 06:35:24;;;;;;;39.30;22.08;;;;;;;;;;5070965;28;20020;-77
2021/04/05 06:37:55;;;;;;;39.65;22.90;;;;;;;;;;5072289;28;20417;-77
2021/04/05 06:40:21;;;;;;;36.88;21.17;;;;;;;;;;5063644;28;20028;-75
2021/04/05 06:43:05;;;;;;;43.70;23.02;;;;;;;;;;5071521;28;20055;-75
2021/04/05 06:45:48;;;;;;;38.70;22.67;;;;;;;;;;5072230;28;20571;-75
2021/04/05 06:48:32;;;;;;;40.45;22.80;;;;;;;;;;5073074;28;20025;-75
2021/04/05 06:51:04;;;;;;;44.03;24.20;;;;;;;;;;5072315;28;20016;-76
2021/04/05 06:53:32;;;;;;;35.80;22.98;;;;;;;;;;5070057;28;20074;-76
2021/04/05 06:55:58;;;;;;;43.20;23.38;;;;;;;;;;5073188;28;20017;-76
2021/04/05 06:58:26;;;;;;;40.75;22.55;;;;;;;;;;5072489;28;20070;-76
2021/04/05 07:01:09;;;;;;;36.50;23.70;;;;;;;;;;5068182;28;20059;-76
2021/04/05 07:03:35;;;;;;;40.97;24.23;;;;;;;;;;5072136;28;20456;-76
2021/04/05 07:06:00;;;;;;;38.28;23.42;;;;;;;;;;5073214;28;20190;-76
2021/04/05 07:08:44;;;;;;;35.13;23.30;;;;;;;;;;5073193;28;20023;-76
2021/04/05 07:11:36;;;;;;;38.45;24.13;;;;;;;;;;5071798;28;20032;-76
2021/04/05 07:14:20;;;;;;;37.20;23.08;;;;;;;;;;5069922;28;20032;-76
2021/04/05 07:16:56;;;;;;;35.30;22.75;;;;;;;;;;5077629;28;20020;-76
2021/04/05 07:19:43;;;;;;;42.88;22.38;;;;;;;;;;5076515;28;20029;-76
2021/04/05 07:22:30;;;;;;;38.13;23.17;;;;;;;;;;5076580;28;20028;-75
2021/04/05 07:25:01;;;;;;;34.70;22.88;;;;;;;;;;5074675;28;20103;-75
2021/04/05 07:27:37;;;;;;;35.45;22.75;;;;;;;;;;5077130;28;20054;-76
2021/04/05 07:30:13;;;;;;;37.75;24.02;;;;;;;;;;5076413;28;20016;-76
2021/04/05 07:32:41;;;;;;;39.10;24.20;;;;;;;;;;5077082;28;20090;-75
2021/04/05 07:35:15;;;;;;;39.25;24.38;;;;;;;;;;5076917;28;20045;-76
2021/04/05 07:37:53;;;;;;;37.47;23.30;;;;;;;;;;5076360;28;20060;-76
2021/04/05 07:40:37;;;;;;;41.70;25.38;;;;;;;;;;5076976;28;20166;-77
2021/04/05 07:43:21;;;;;;;40.20;26.05;;;;;;;;;;5076923;28;20045;-77
2021/04/05 07:46:12;;;;;;;43.88;25.38;;;;;;;;;;5076969;28;20016;-77
2021/04/05 07:48:39;;;;;;;35.67;25.75;;;;;;;;;;5045598;28;20472;-77
2021/04/05 07:51:27;;;;;;;39.67;25.33;;;;;;;;;;5076592;28;20056;-73
2021/04/05 07:54:05;;;;;;;53.63;27.40;;;;;;;;;;5076835;28;20048;-77
2021/04/05 07:56:31;;;;;;;39.85;25.23;;;;;;;;;;5078829;28;20402;-77
2021/04/05 07:59:02;;;;;;;38.83;26.65;;;;;;;;;;5076185;28;20031;-78
2021/04/05 08:01:44;;;;;;;37.08;24.85;;;;;;;;;;5075184;28;20371;-77
2021/04/05 08:04:20;;;;;;;38.50;26.48;;;;;;;;;;5076388;28;20020;-77
2021/04/05 08:06:57;;;;;;;38.60;25.88;;;;;;;;;;5072962;28;20028;-77
2021/04/05 08:09:31;;;;;;;36.47;24.00;;;;;;;;;;5064257;28;20475;-77
2021/04/05 08:12:16;;;;;;;35.75;22.92;;;;;;;;;;5076343;28;20025;-77
2021/04/05 08:14:47;;;;;;;33.05;22.20;;;;;;;;;;5076286;28;20048;-77
2021/04/05 08:17:18;;;;;;;32.15;22.52;;;;;;;;;;5076179;28;20031;-78
2021/04/05 08:19:45;;;;;;;33.65;21.45;;;;;;;;;;5076288;28;20448;-77
2021/04/05 08:22:23;;;;;;;31.40;21.33;;;;;;;;;;5076219;28;20024;-79
2021/04/05 08:25:03;;;;;;;32.13;20.35;;;;;;;;;;5065554;28;20021;-76
2021/04/05 08:27:44;;;;;;;33.17;21.05;;;;;;;;;;5062435;28;20021;-78
2021/04/05 08:30:21;;;;;;;28.08;18.80;;;;;;;;;;5058780;28;20013;-78
2021/04/05 08:33:04;;;;;;;29.52;20.13;;;;;;;;;;5063252;28;20334;-76
2021/04/05 08:35:29;;;;;;;30.02;18.85;;;;;;;;;;5075647;28;20024;-75
2021/04/05 08:38:04;;;;;;;25.25;18.95;;;;;;;;;;5068133;28;20342;-76
2021/04/05 08:40:45;;;;;;;30.38;18.75;;;;;;;;;;5067469;28;20107;-76
2021/04/05 08:43:15;;;;;;;28.70;18.10;;;;;;;;;;5075466;28;20106;-78
2021/04/05 08:45:44;;;;;;;25.83;18.80;;;;;;;;;;5075252;28;20054;-78
2021/04/05 08:48:14;;;;;;;26.73;18.88;;;;;;;;;;5068364;28;20344;-77
2021/04/05 08:50:41;;;;;;;27.23;19.42;;;;;;;;;;5073928;28;20024;-78
2021/04/05 08:53:08;;;;;;;28.30;19.30;;;;;;;;;;5075095;28;20378;-78
2021/04/05 08:55:33;;;;;;;23.38;16.92;;;;;;;;;;5074975;28;20020;-78
2021/04/05 08:58:05;;;;;;;22.73;17.48;;;;;;;;;;5060725;28;20050;-76
2021/04/05 09:00:33;;;;;;;26.33;18.10;;;;;;;;;;5070924;28;20024;-77
2021/04/05 09:03:00;;;;;;;23.50;18.55;;;;;;;;;;5075166;28;20074;-77
2021/04/05 09:05:30;;;;;;;25.10;18.70;;;;;;;;;;5073887;28;20072;-77
2021/04/05 09:08:07;;;;;;;23.55;17.88;;;;;;;;;;5056945;28;20025;-78
2021/04/05 09:10:32;;;;;;;26.63;19.45;;;;;;;;;;5067682;28;20464;-77
2021/04/05 09:12:59;;;;;;;26.60;16.73;;;;;;;;;;5066979;28;20059;-78
2021/04/05 09:15:27;;;;;;;17.42;9.80;;;;;;;;;;5074772;28;20017;-77
2021/04/05 09:18:07;;;;;;;13.77;8.02;;;;;;;;;;5074663;28;20449;-77
2021/04/05 09:20:57;;;;;;;14.13;7.80;;;;;;;;;;5074683;28;20020;-79
2021/04/05 09:23:42;;;;;;;12.20;7.43;;;;;;;;;;5072630;28;20413;-83
2021/04/05 09:26:36;;;;;;;15.95;7.47;;;;;;;;;;5079004;28;20031;-80
2021/04/05 09:29:07;;;;;;;9.80;6.15;;;;;;;;;;5061152;28;20028;-79
2021/04/05 09:31:46;;;;;;;13.55;6.55;;;;;;;;;;5074345;28;20035;-81
2021/04/05 09:34:17;;;;;;;10.73;6.10;;;;;;;;;;5086774;28;20070;-81
2021/04/05 09:36:43;;;;;;;14.00;6.05;;;;;;;;;;5080058;28;20042;-80
2021/04/05 09:39:17;;;;;;;7.32;4.85;;;;;;;;;;5074642;28;21320;-82
2021/04/05 09:42:09;;;;;;;9.15;5.72;;;;;;;;;;5077638;28;20040;-81
2021/04/05 09:44:36;;;;;;;11.38;5.18;;;;;;;;;;5043722;28;20139;-82
2021/04/05 09:47:16;;;;;;;13.80;5.72;;;;;;;;;;5084488;28;20035;-80
2021/04/05 09:49:54;;;;;;;11.15;6.32;;;;;;;;;;5078304;28;20484;-80
2021/04/05 09:52:38;;;;;;;12.00;6.40;;;;;;;;;;5077375;28;20028;-79
2021/04/05 09:55:13;;;;;;;11.75;7.50;;;;;;;;;;5084002;28;20429;-81
2021/04/05 09:57:41;;;;;;;14.40;9.32;;;;;;;;;;5073798;28;20020;-81
2021/04/05 10:00:10;;;;;;;17.35;9.88;;;;;;;;;;5071033;28;20032;-78
2021/04/05 10:02:48;;;;;;;11.85;8.15;;;;;;;;;;5071587;28;20009;-78
2021/04/05 10:05:14;;;;;;;11.80;7.97;;;;;;;;;;5074015;28;20472;-77
2021/04/05 10:07:43;;;;;;;12.88;7.47;;;;;;;;;;5073526;28;20034;-81
2021/04/05 10:10:12;;;;;;;11.88;6.47;;;;;;;;;;5073690;28;20078;-78
2021/04/05 10:12:40;;;;;;;13.50;7.03;;;;;;;;;;5070357;28;20016;-77
2021/04/05 10:15:05;;;;;;;9.93;6.30;;;;;;;;;;5071461;28;20047;-78
2021/04/05 10:17:37;;;;;;;10.95;6.70;;;;;;;;;;5072333;28;20021;-79
2021/04/05 10:20:06;;;;;;;6.43;4.47;;;;;;;;;;5065871;28;20020;-79
2021/04/05 10:22:43;;;;;;;7.32;4.53;;;;;;;;;;5072483;28;20020;-78
2021/04/05 10:25:09;;;;;;;4.85;3.65;;;;;;;;;;5063204;28;20035;-78
2021/04/05 10:27:34;;;;;;;3.50;2.05;;;;;;;;;;5054084;28;20021;-78
2021/04/05 10:30:01;;;;;;;5.38;2.00;;;;;;;;;;5068506;28;20032;-77
2021/04/05 10:32:27;;;;;;;3.63;2.63;;;;;;;;;;5053841;28;20032;-78
2021/04/05 10:35:00;;;;;;;5.57;3.00;;;;;;;;;;5066394;28;20021;-77
2021/04/05 10:37:40;;;;;;;3.13;2.83;;;;;;;;;;5073744;28;20406;-76
2021/04/05 10:40:09;;;;;;;3.85;2.92;;;;;;;;;;5073143;28;20050;-78
2021/04/05 10:42:38;;;;;;;4.53;2.75;;;;;;;;;;5072972;28;20189;-78
2021/04/05 10:45:26;;;;;;;8.30;2.42;;;;;;;;;;5073294;28;20043;-77
2021/04/05 10:48:00;;;;;;;8.95;2.20;;;;;;;;;;5072860;28;20452;-77
2021/04/05 10:50:33;;;;;;;6.97;2.15;;;;;;;;;;5073559;28;20036;-79
2021/04/05 10:53:04;;;;;;;9.10;2.55;;;;;;;;;;5073488;28;20020;-77
2021/04/05 10:55:30;;;;;;;9.05;2.30;;;;;;;;;;5072473;28;20024;-78
2021/04/05 10:58:02;;;;;;;10.35;2.15;;;;;;;;;;5073481;28;20021;-78
2021/04/05 11:00:32;;;;;;;10.75;2.70;;;;;;;;;;5073369;28;20021;-78
2021/04/05 11:03:12;;;;;;;10.02;2.60;;;;;;;;;;5073186;28;20017;-78
2021/04/05 11:05:38;;;;;;;12.18;2.75;;;;;;;;;;5073052;28;20111;-78
2021/04/05 11:08:04;;;;;;;9.68;2.80;;;;;;;;;;5073092;28;20078;-78
2021/04/05 11:10:31;;;;;;;9.18;3.30;;;;;;;;;;5073151;28;20031;-78
2021/04/05 11:12:58;;;;;;;11.80;3.10;;;;;;;;;;5071897;28;20028;-78
2021/04/05 11:15:24;;;;;;;13.20;3.40;;;;;;;;;;5072771;28;20029;-77
2021/04/05 11:17:54;;;;;;;7.93;2.83;;;;;;;;;;5070249;28;20017;-78
2021/04/05 11:20:21;;;;;;;9.15;3.05;;;;;;;;;;5073114;28;20082;-78
2021/04/05 11:22:54;;;;;;;9.70;2.78;;;;;;;;;;5073119;28;20012;-78
2021/04/05 11:25:21;;;;;;;12.05;2.92;;;;;;;;;;5073165;28;20031;-78
2021/04/05 11:27:54;;;;;;;10.00;2.65;;;;;;;;;;5072098;28;20024;-82
2021/04/05 11:30:23;;;;;;;9.27;2.50;;;;;;;;;;5073146;28;20032;-84
2021/04/05 11:32:52;;;;;;;10.85;3.17;;;;;;;;;;5072999;28;20021;-78
2021/04/05 11:35:20;;;;;;;12.55;4.10;;;;;;;;;;5071957;28;20074;-78
2021/04/05 11:37:46;;;;;;;14.00;4.15;;;;;;;;;;5071795;28;20465;-79
2021/04/05 11:40:13;;;;;;;9.60;3.80;;;;;;;;;;5072716;28;20032;-79
2021/04/05 11:42:42;;;;;;;13.52;3.45;;;;;;;;;;5072398;28;20045;-78
2021/04/05 11:45:09;;;;;;;11.27;3.28;;;;;;;;;;5072539;28;20016;-79
2021/04/05 11:47:40;;;;;;;14.23;3.30;;;;;;;;;;5072536;28;20627;-80
2021/04/05 11:50:16;;;;;;;12.55;3.45;;;;;;;;;;5072280;28;20305;-77
2021/04/05 11:52:47;;;;;;;11.38;3.33;;;;;;;;;;5071600;28;20598;-81
2021/04/05 11:55:17;;;;;;;11.80;3.17;;;;;;;;;;5069685;28;20120;-84
2021/04/05 11:57:48;;;;;;;11.45;2.63;;;;;;;;;;5072369;28;20452;-75
2021/04/05 12:00:16;;;;;;;9.95;3.00;;;;;;;;;;5073482;28;20028;-77
2021/04/05 12:02:52;;;;;;;8.50;2.22;;;;;;;;;;5076085;28;20024;-77
2021/04/05 12:05:29;;;;;;;5.88;1.98;;;;;;;;;;5076399;28;20103;-75
2021/04/05 12:08:11;;;;;;;5.03;1.63;;;;;;;;;;5076124;28;20043;-76
2021/04/05 12:10:38;;;;;;;3.95;1.27;;;;;;;;;;5076330;28;20020;-77
2021/04/05 12:13:12;;;;;;;3.10;1.33;;;;;;;;;;5071006;28;20047;-77
2021/04/05 12:15:37;;;;;;;4.90;1.42;;;;;;;;;;5070161;28;20040;-76
2021/04/05 12:18:05;;;;;;;5.70;1.50;;;;;;;;;;5075816;28;20012;-76
2021/04/05 12:20:31;;;;;;;4.70;1.73;;;;;;;;;;5075929;28;20024;-76
2021/04/05 12:22:58;;;;;;;6.20;1.75;;;;;;;;;;5076237;28;20114;-74
2021/04/05 12:25:27;;;;;;;3.95;1.63;;;;;;;;;;5076265;28;20329;-74
2021/04/05 12:27:56;;;;;;;8.50;1.70;;;;;;;;;;5076146;28;20020;-73
2021/04/05 12:30:25;;;;;;;18.08;16.27;;;;;;;;;;5076084;28;20032;-74
2021/04/05 12:32:53;;;;;;;7.10;3.17;;;;;;;;;;5072963;28;20016;-74
2021/04/05 12:35:18;;;;;;;6.13;2.00;;;;;;;;;;5077777;28;20051;-72
2021/04/05 12:37:52;;;;;;;5.57;1.73;;;;;;;;;;5079690;28;20495;-73
2021/04/05 12:40:24;;;;;;;6.03;1.90;;;;;;;;;;5079469;28;20023;-73
2021/04/05 12:42:52;;;;;;;7.82;2.30;;;;;;;;;;5083377;28;20411;-73
2021/04/05 12:45:21;;;;;;;5.78;1.67;;;;;;;;;;5084136;28;20404;-74
2021/04/05 12:47:49;;;;;;;4.93;1.55;;;;;;;;;;5087660;28;20022;-73
2021/04/05 12:50:16;;;;;;;5.80;1.65;;;;;;;;;;5079381;28;20031;-73
2021/04/05 12:52:42;;;;;;;5.45;1.70;;;;;;;;;;5075611;28;20048;-74
2021/04/05 12:55:11;;;;;;;6.53;1.83;;;;;;;;;;5075707;28;20047;-73
2021/04/05 12:57:37;;;;;;;6.20;2.35;;;;;;;;;;5075631;28;20012;-74
2021/04/05 13:00:06;;;;;;;9.15;2.30;;;;;;;;;;5069036;28;20458;-73
2021/04/05 13:02:33;;;;;;;8.10;2.47;;;;;;;;;;5073134;28;20024;-73
2021/04/05 13:05:01;;;;;;;8.25;2.45;;;;;;;;;;5074941;28;20096;-73
2021/04/05 13:07:46;;;;;;;8.85;2.83;;;;;;;;;;5074937;28;20013;-73
2021/04/05 13:10:21;;;;;;;7.18;2.10;;;;;;;;;;5053864;28;20033;-74
2021/04/05 13:12:52;;;;;;;9.20;2.80;;;;;;;;;;5068681;28;20082;-74
2021/04/05 13:15:22;;;;;;;5.90;2.05;;;;;;;;;;5055263;28;20024;-74
2021/04/05 13:17:50;;;;;;;7.35;2.47;;;;;;;;;;5055138;28;20076;-76
2021/04/05 13:20:20;;;;;;;5.75;2.20;;;;;;;;;;5055287;28;20114;-75
2021/04/05 13:22:53;;;;;;;7.18;2.17;;;;;;;;;;5055091;28;20021;-73
2021/04/05 13:25:30;;;;;;;7.15;2.55;;;;;;;;;;5055169;28;20035;-74
2021/04/05 13:27:55;;;;;;;;;;;;;;;;;;5055485;28;20059;-73
2021/04/05 13:30:26;;;;;;;7.07;2.07;;;;;;;;;;5055195;28;19959;-73
2021/04/05 13:32:51;;;;;;;10.43;2.40;;;;;;;;;;5055436;28;20115;-76
2021/04/05 13:35:21;;;;;;;11.02;2.78;;;;;;;;;;5054015;28;20044;-74
2021/04/05 13:37:54;;;;;;;11.90;2.90;;;;;;;;;;5054467;28;20058;-74
2021/04/05 13:40:27;;;;;;;9.48;2.65;;;;;;;;;;5054453;28;20105;-75
2021/04/05 13:42:53;;;;;;;10.90;2.85;;;;;;;;;;5053567;28;20064;-76
2021/04/05 13:45:19;;;;;;;9.10;2.85;;;;;;;;;;5054871;28;20480;-74
2021/04/05 13:47:49;;;;;;;8.13;2.42;;;;;;;;;;5054616;28;20074;-74
2021/04/05 13:50:16;;;;;;;6.30;2.42;;;;;;;;;;5056951;28;20090;-76
2021/04/05 13:52:45;;;;;;;8.75;2.55;;;;;;;;;;5061355;28;20026;-74
2021/04/05 13:55:11;;;;;;;8.48;2.50;;;;;;;;;;5057558;28;20024;-76
2021/04/05 13:57:47;;;;;;;10.88;2.80;;;;;;;;;;5054394;28;20056;-74
2021/04/05 14:00:15;;;;;;;8.95;2.40;;;;;;;;;;5053194;28;20012;-75
2021/04/05 14:02:45;;;;;;;8.68;2.55;;;;;;;;;;5054300;28;20036;-75
2021/04/05 14:05:17;;;;;;;8.60;2.70;;;;;;;;;;5054182;28;20441;-73
2021/04/05 14:07:44;;;;;;;9.27;2.60;;;;;;;;;;5052987;28;20116;-73
2021/04/05 14:10:10;;;;;;;6.40;2.30;;;;;;;;;;5054311;28;20030;-73
2021/04/05 14:12:41;;;;;;;7.47;2.42;;;;;;;;;;5054008;28;20036;-75
2021/04/05 14:15:09;;;;;;;9.57;2.40;;;;;;;;;;5052971;28;20066;-79
2021/04/05 14:17:36;;;;;;;6.95;2.20;;;;;;;;;;5053588;28;20025;-75
2021/04/05 14:20:06;;;;;;;9.07;2.55;;;;;;;;;;5052899;28;20032;-75
2021/04/05 14:22:34;;;;;;;7.35;2.22;;;;;;;;;;5053329;28;20021;-76
2021/04/05 14:25:01;;;;;;;8.52;2.53;;;;;;;;;;5052935;28;20108;-80
2021/04/05 14:27:47;;;;;;;8.30;2.03;;;;;;;;;;5053798;28;20341;-77
2021/04/05 14:30:13;;;;;;;5.88;2.28;;;;;;;;;;5054273;28;20057;-77
2021/04/05 14:32:46;;;;;;;9.90;2.35;;;;;;;;;;5053705;28;20033;-81
2021/04/05 14:35:12;;;;;;;8.20;2.33;;;;;;;;;;5053068;28;20075;-78
2021/04/05 14:37:37;;;;;;;6.68;2.13;;;;;;;;;;5053848;28;20135;-78
2021/04/05 14:40:06;;;;;;;7.10;2.20;;;;;;;;;;5058154;28;20069;-77
2021/04/05 14:42:36;;;;;;;6.10;2.50;;;;;;;;;;5075229;28;20053;-77
2021/04/05 14:45:09;;;;;;;6.18;2.50;;;;;;;;;;5059946;28;20024;-76